Time;durP1;ratioP1;P1;durP2;ratioP2;P2;SDS_P1;SDS_P2;PMS_P1;PMS_P2;Temp;Humidity;BMP_temperature;BMP_pressure;BME280_temperature;BME280_humidity;BME280_pressure;Samples;Min_cycle;Max_cycle;Signal;HPM_P1;HPM_P2
2023/07/31 00:00:17;;;;;;;6.03;5.60;;;18.70;99.90;;;;;;4985163;28;20196;-70
2023/07/31 00:02:43;;;;;;;7.07;6.37;;;18.70;99.90;;;;;;4978056;28;20532;-71
2023/07/31 00:05:09;;;;;;;5.77;5.37;;;18.70;99.90;;;;;;4992401;28;20219;-71
2023/07/31 00:07:35;;;;;;;6.20;5.70;;;18.70;99.90;;;;;;4991737;28;20435;-71
2023/07/31 00:10:01;;;;;;;6.37;5.97;;;18.70;99.90;;;;;;4980997;28;20987;-71
2023/07/31 00:12:27;;;;;;;7.10;6.60;;;18.70;99.90;;;;;;4980550;28;20196;-71
2023/07/31 00:14:52;;;;;;;7.50;6.90;;;18.70;99.90;;;;;;4986580;28;20438;-68
2023/07/31 00:17:18;;;;;;;7.33;6.73;;;18.70;99.90;;;;;;4984949;28;20553;-72
2023/07/31 00:19:46;;;;;;;7.80;7.00;;;18.80;99.90;;;;;;4985379;28;20176;-71
2023/07/31 00:22:12;;;;;;;6.30;5.80;;;18.80;99.90;;;;;;4992164;28;20187;-71
2023/07/31 00:24:38;;;;;;;6.80;6.20;;;18.90;99.90;;;;;;4981295;28;20435;-62
2023/07/31 00:27:04;;;;;;;6.67;6.17;;;18.90;99.90;;;;;;4980442;28;20477;-69
2023/07/31 00:29:30;;;;;;;6.87;6.30;;;18.90;99.90;;;;;;4989790;28;20226;-71
2023/07/31 00:31:57;;;;;;;6.20;5.70;;;18.90;99.90;;;;;;4986113;28;20478;-73
2023/07/31 00:34:23;;;;;;;7.00;5.63;;;18.80;99.90;;;;;;4990696;28;20529;-71
2023/07/31 00:36:48;;;;;;;6.57;5.77;;;18.80;99.90;;;;;;4979593;28;20507;-73
2023/07/31 00:39:14;;;;;;;7.37;6.60;;;18.80;99.90;;;;;;4981472;28;20180;-71
2023/07/31 00:41:40;;;;;;;7.03;6.43;;;18.90;99.90;;;;;;4978294;28;20234;-64
2023/07/31 00:44:05;;;;;;;6.77;6.27;;;18.90;99.90;;;;;;4991034;28;20198;-72
2023/07/31 00:46:31;;;;;;;6.97;6.47;;;18.80;99.90;;;;;;4985334;28;20207;-72
2023/07/31 00:48:57;;;;;;;6.93;6.23;;;18.90;99.90;;;;;;4990020;28;20429;-70
2023/07/31 00:51:23;;;;;;;6.13;5.73;;;18.80;99.90;;;;;;4990796;28;20217;-66
2023/07/31 00:53:49;;;;;;;6.37;5.97;;;18.80;99.90;;;;;;4988997;28;20311;-73
2023/07/31 00:56:16;;;;;;;7.53;6.67;;;18.80;99.90;;;;;;4991989;28;20891;-74
2023/07/31 00:58:41;;;;;;;7.00;6.50;;;18.80;99.90;;;;;;4988620;28;20274;-65
2023/07/31 01:01:07;;;;;;;8.93;6.40;;;18.80;99.90;;;;;;4984287;28;20529;-74
2023/07/31 01:03:33;;;;;;;6.60;6.03;;;18.70;99.90;;;;;;4983590;28;20187;-75
2023/07/31 01:06:27;;;;;;;6.67;6.17;;;18.70;99.90;;;;;;4985231;28;20306;-70
2023/07/31 01:09:03;;;;;;;6.73;6.23;;;18.70;99.90;;;;;;4980544;28;20562;-73
2023/07/31 01:11:32;;;;;;;8.53;7.17;;;18.80;99.90;;;;;;4979349;28;20467;-69
2023/07/31 01:13:59;;;;;;;7.30;6.60;;;18.80;99.90;;;;;;4980130;28;20427;-73
2023/07/31 01:16:28;;;;;;;7.00;6.30;;;18.70;99.90;;;;;;4989043;28;20533;-73
2023/07/31 01:18:53;;;;;;;7.60;6.90;;;18.80;99.90;;;;;;4982369;28;20444;-74
2023/07/31 01:21:28;;;;;;;7.43;6.73;;;18.80;99.90;;;;;;4987252;28;20443;-73
2023/07/31 01:24:13;;;;;;;7.40;6.20;;;18.80;99.90;;;;;;4983786;28;20171;-81
2023/07/31 01:26:46;;;;;;;7.83;7.13;;;18.80;99.90;;;;;;4989920;28;20521;-61
2023/07/31 01:29:23;;;;;;;8.07;7.37;;;18.80;99.90;;;;;;4985151;28;20526;-66
2023/07/31 01:31:53;;;;;;;7.53;6.73;;;18.80;99.90;;;;;;4982495;28;20545;-71
2023/07/31 01:34:20;;;;;;;8.97;6.53;;;18.90;99.90;;;;;;4982749;28;20423;-71
2023/07/31 01:36:46;;;;;;;7.20;6.53;;;18.90;99.90;;;;;;4982423;28;20503;-71
2023/07/31 01:39:11;;;;;;;7.80;7.00;;;18.90;99.90;;;;;;4977845;28;20579;-71
2023/07/31 01:41:37;;;;;;;7.43;6.70;;;18.90;99.90;;;;;;4978470;28;20628;-67
2023/07/31 01:44:06;;;;;;;8.00;6.63;;;19.00;99.90;;;;;;4979129;28;20184;-67
2023/07/31 01:46:31;;;;;;;6.90;6.43;;;19.00;99.90;;;;;;4981991;28;20204;-70
2023/07/31 01:48:57;;;;;;;6.90;6.20;;;19.00;99.90;;;;;;4979804;28;20439;-72
2023/07/31 01:51:23;;;;;;;7.00;6.40;;;19.00;99.90;;;;;;4983861;28;20698;-67
2023/07/31 01:53:49;;;;;;;6.93;5.90;;;18.90;99.90;;;;;;4990033;28;20438;-71
2023/07/31 01:56:14;;;;;;;7.77;6.50;;;19.00;99.90;;;;;;4989086;28;20278;-72
2023/07/31 01:58:40;;;;;;;9.10;6.70;;;19.00;99.90;;;;;;4990456;28;20270;-71
2023/07/31 02:01:06;;;;;;;7.60;6.80;;;19.00;99.90;;;;;;4980392;28;20635;-71
2023/07/31 02:03:32;;;;;;;8.40;6.30;;;19.00;99.90;;;;;;4989316;28;20188;-69
2023/07/31 02:05:57;;;;;;;6.77;6.17;;;18.90;99.90;;;;;;4985890;28;20210;-70
2023/07/31 02:08:23;;;;;;;7.40;6.80;;;19.00;99.90;;;;;;4983546;28;20207;-70
2023/07/31 02:10:49;;;;;;;6.70;6.20;;;19.10;99.90;;;;;;4989423;28;20200;-70
2023/07/31 02:13:14;;;;;;;7.03;6.33;;;19.00;99.90;;;;;;4982149;28;20239;-71
2023/07/31 02:15:40;;;;;;;6.83;6.20;;;19.00;99.90;;;;;;4986514;28;20190;-72
2023/07/31 02:18:06;;;;;;;6.53;5.93;;;19.00;99.90;;;;;;4976085;28;20622;-71
2023/07/31 02:20:35;;;;;;;7.10;6.50;;;19.00;99.90;;;;;;4993282;28;20191;-73
2023/07/31 02:23:01;;;;;;;6.63;5.87;;;18.90;99.90;;;;;;4992716;28;20731;-71
2023/07/31 02:25:27;;;;;;;6.53;5.83;;;19.00;99.90;;;;;;4987648;28;20411;-67
2023/07/31 02:27:52;;;;;;;6.57;6.00;;;19.00;99.90;;;;;;4993263;28;21041;-71
2023/07/31 02:30:18;;;;;;;8.83;6.17;;;19.00;99.90;;;;;;4986487;28;20175;-72
2023/07/31 02:32:44;;;;;;;6.37;5.87;;;19.00;99.90;;;;;;4993065;28;20577;-63
2023/07/31 02:35:11;;;;;;;7.07;6.27;;;18.90;99.90;;;;;;4991612;28;20250;-70
2023/07/31 02:37:38;;;;;;;6.67;6.07;;;19.00;99.90;;;;;;4988064;28;20242;-74
2023/07/31 02:40:04;;;;;;;6.50;5.73;;;19.00;99.90;;;;;;4990385;28;20450;-74
2023/07/31 02:42:29;;;;;;;6.57;5.57;;;19.00;99.90;;;;;;4989949;28;20441;-73
2023/07/31 02:44:55;;;;;;;8.47;5.70;;;18.90;99.90;;;;;;4990216;28;20435;-72
2023/07/31 02:47:22;;;;;;;8.67;5.40;;;19.00;99.90;;;;;;4993769;28;20204;-70
2023/07/31 02:49:48;;;;;;;9.27;6.53;;;19.00;99.90;;;;;;4990084;28;20938;-67
2023/07/31 02:52:14;;;;;;;7.03;6.47;;;19.00;99.90;;;;;;4991189;28;20465;-71
2023/07/31 02:54:39;;;;;;;6.93;5.53;;;19.00;99.90;;;;;;4990433;28;20192;-71
2023/07/31 02:57:05;;;;;;;10.30;7.13;;;19.00;99.90;;;;;;4985647;28;20198;-71
2023/07/31 02:59:31;;;;;;;6.30;5.70;;;19.00;99.90;;;;;;4980361;28;20711;-71
2023/07/31 03:01:59;;;;;;;6.83;6.13;;;19.00;99.90;;;;;;4991452;28;20238;-71
2023/07/31 03:04:25;;;;;;;10.30;5.93;;;19.00;99.90;;;;;;4989167;28;20250;-72
2023/07/31 03:06:50;;;;;;;7.10;6.40;;;19.00;99.90;;;;;;4984319;28;20427;-62
2023/07/31 03:09:16;;;;;;;6.27;5.77;;;19.00;99.90;;;;;;4991326;28;20578;-70
2023/07/31 03:11:42;;;;;;;7.40;5.23;;;19.00;99.90;;;;;;4984218;28;20554;-72
2023/07/31 03:14:07;;;;;;;6.73;6.00;;;19.00;99.90;;;;;;4992929;28;20240;-71
2023/07/31 03:16:33;;;;;;;5.90;5.50;;;19.00;99.90;;;;;;4988938;28;20184;-71
2023/07/31 03:18:59;;;;;;;8.03;5.67;;;19.10;99.90;;;;;;4993081;28;20175;-71
2023/07/31 03:21:25;;;;;;;6.50;5.57;;;19.10;99.90;;;;;;4981132;28;20191;-71
2023/07/31 03:23:50;;;;;;;7.53;5.30;;;19.10;99.90;;;;;;4985710;28;20284;-71
2023/07/31 03:26:16;;;;;;;8.30;5.87;;;19.10;99.90;;;;;;4984072;28;20550;-71
2023/07/31 03:28:42;;;;;;;6.90;6.20;;;19.10;99.90;;;;;;4991380;28;20556;-73
2023/07/31 03:31:08;;;;;;;6.80;6.20;;;19.10;99.90;;;;;;4986899;28;20219;-73
2023/07/31 03:33:34;;;;;;;6.90;5.17;;;19.10;99.90;;;;;;4992377;28;20227;-72
2023/07/31 03:35:59;;;;;;;6.90;6.20;;;19.10;99.90;;;;;;4981397;28;20435;-71
2023/07/31 03:38:25;;;;;;;7.33;6.47;;;19.00;99.90;;;;;;4988016;28;20207;-69
2023/07/31 03:40:51;;;;;;;7.57;6.80;;;19.00;99.90;;;;;;4989773;28;20211;-67
2023/07/31 03:43:17;;;;;;;9.73;6.77;;;19.00;99.90;;;;;;4985584;28;20181;-70
2023/07/31 03:45:43;;;;;;;6.20;5.67;;;19.00;99.90;;;;;;4981004;28;20179;-71
2023/07/31 03:48:08;;;;;;;7.87;6.17;;;19.00;99.90;;;;;;4988051;28;20279;-71
2023/07/31 03:50:34;;;;;;;8.13;6.13;;;19.00;99.90;;;;;;4982479;28;20630;-71
2023/07/31 03:53:00;;;;;;;6.30;5.80;;;19.00;99.90;;;;;;4986702;28;20184;-71
2023/07/31 03:55:25;;;;;;;7.40;6.70;;;19.00;99.90;;;;;;4986467;28;20180;-67
2023/07/31 03:57:51;;;;;;;6.60;6.10;;;19.00;99.90;;;;;;4989738;28;20191;-63
2023/07/31 04:00:17;;;;;;;7.37;5.90;;;19.10;99.90;;;;;;4991473;28;20682;-71
2023/07/31 04:02:43;;;;;;;7.03;6.43;;;19.10;99.90;;;;;;4993288;28;20180;-73
2023/07/31 04:05:09;;;;;;;6.73;6.20;;;19.10;99.90;;;;;;4990327;28;20849;-72
2023/07/31 04:07:35;;;;;;;12.10;7.07;;;19.10;99.90;;;;;;4988182;28;20603;-66
2023/07/31 04:10:00;;;;;;;6.67;6.17;;;19.10;99.90;;;;;;4992610;28;20494;-70
2023/07/31 04:12:26;;;;;;;8.40;7.60;;;19.00;99.90;;;;;;4991683;28;20219;-71
2023/07/31 04:14:52;;;;;;;8.27;7.57;;;19.00;99.90;;;;;;4991943;28;20192;-63
2023/07/31 04:17:18;;;;;;;5.70;5.30;;;19.10;99.90;;;;;;4991363;28;20627;-72
2023/07/31 04:19:44;;;;;;;7.70;7.00;;;19.10;99.90;;;;;;4988547;28;20211;-73
2023/07/31 04:22:10;;;;;;;7.20;6.60;;;19.10;99.90;;;;;;4981725;28;20521;-69
2023/07/31 04:24:35;;;;;;;8.37;7.70;;;19.20;99.90;;;;;;4991684;28;20191;-72
2023/07/31 04:27:01;;;;;;;7.27;6.70;;;19.20;99.90;;;;;;4982522;28;20175;-72
2023/07/31 04:29:27;;;;;;;6.30;5.60;;;19.30;99.90;;;;;;4992718;28;20171;-73
2023/07/31 04:31:52;;;;;;;6.90;5.40;;;19.30;99.90;;;;;;4991379;28;20239;-64
2023/07/31 04:34:18;;;;;;;10.00;7.10;;;19.30;99.90;;;;;;4988751;28;20188;-72
2023/07/31 04:36:44;;;;;;;8.63;7.10;;;19.30;99.90;;;;;;4991673;28;20725;-72
2023/07/31 04:39:10;;;;;;;7.17;6.57;;;19.30;99.90;;;;;;4989731;28;20246;-72
2023/07/31 04:41:38;;;;;;;8.10;7.00;;;19.40;99.90;;;;;;4991127;28;20229;-67
2023/07/31 04:44:06;;;;;;;8.97;8.10;;;19.40;99.90;;;;;;4991381;28;20175;-73
2023/07/31 04:46:32;;;;;;;7.73;5.50;;;19.30;99.90;;;;;;4991821;28;20426;-72
2023/07/31 04:48:57;;;;;;;9.50;8.40;;;19.40;99.90;;;;;;4977544;28;20435;-71
2023/07/31 04:51:23;;;;;;;8.70;8.00;;;19.40;99.90;;;;;;4988922;28;20218;-71
2023/07/31 04:53:49;;;;;;;7.70;6.87;;;19.40;99.90;;;;;;4981075;28;20566;-71
2023/07/31 04:56:15;;;;;;;8.70;7.80;;;19.50;99.90;;;;;;4991907;28;20283;-71
2023/07/31 04:58:42;;;;;;;6.53;5.90;;;19.50;99.90;;;;;;4991060;28;20191;-71
2023/07/31 05:01:07;;;;;;;6.00;5.53;;;19.50;99.90;;;;;;4987964;28;20419;-71
2023/07/31 05:03:33;;;;;;;8.13;7.53;;;19.50;99.90;;;;;;4991947;28;20509;-71
2023/07/31 05:05:59;;;;;;;10.70;8.10;;;19.50;99.90;;;;;;4991034;28;20594;-72
2023/07/31 05:08:24;;;;;;;8.73;6.90;;;19.50;99.90;;;;;;4991194;28;20298;-69
2023/07/31 05:10:51;;;;;;;9.30;8.40;;;19.50;99.90;;;;;;4992669;28;20208;-72
2023/07/31 05:13:17;;;;;;;8.20;5.67;;;19.50;99.90;;;;;;4986789;28;20210;-73
2023/07/31 05:15:42;;;;;;;7.47;6.60;;;19.50;99.90;;;;;;4987427;28;20482;-71
2023/07/31 05:18:08;;;;;;;8.47;7.70;;;19.50;99.90;;;;;;4991950;28;20180;-71
2023/07/31 05:20:34;;;;;;;7.30;6.70;;;19.50;99.90;;;;;;4989675;28;20183;-70
2023/07/31 05:22:59;;;;;;;6.23;5.50;;;19.50;99.90;;;;;;4989731;28;20233;-71
2023/07/31 05:25:25;;;;;;;16.60;10.90;;;19.50;99.90;;;;;;4988502;28;20191;-71
2023/07/31 05:27:51;;;;;;;8.70;7.87;;;19.50;99.90;;;;;;4985892;28;20188;-72
2023/07/31 05:30:17;;;;;;;8.43;6.63;;;19.50;99.90;;;;;;4985995;28;20235;-71
2023/07/31 05:32:42;;;;;;;8.90;7.67;;;19.60;99.90;;;;;;4973496;28;20225;-72
2023/07/31 05:35:09;;;;;;;8.00;7.17;;;19.60;99.90;;;;;;4990470;28;20643;-72
2023/07/31 05:37:34;;;;;;;28.60;25.60;;;19.70;99.90;;;;;;4991060;28;20248;-71
2023/07/31 05:40:00;;;;;;;8.07;7.47;;;19.70;99.90;;;;;;4989130;28;20549;-73
2023/07/31 05:42:26;;;;;;;9.67;7.70;;;19.70;99.90;;;;;;4990038;28;20191;-71
2023/07/31 05:44:52;;;;;;;9.80;7.53;;;19.70;99.90;;;;;;4990870;28;20191;-72
2023/07/31 05:47:17;;;;;;;8.17;6.80;;;19.60;99.90;;;;;;4989841;28;20195;-73
2023/07/31 05:49:44;;;;;;;7.43;6.70;;;19.70;99.90;;;;;;4990394;28;20183;-73
2023/07/31 05:52:10;;;;;;;9.53;8.70;;;19.70;99.90;;;;;;4982117;28;20208;-68
2023/07/31 05:54:35;;;;;;;6.50;5.93;;;19.70;99.90;;;;;;4982861;28;20505;-72
2023/07/31 05:57:01;;;;;;;9.33;6.47;;;19.70;99.90;;;;;;4993180;28;20190;-68
2023/07/31 05:59:27;;;;;;;9.27;8.57;;;19.70;99.90;;;;;;4991389;28;20175;-74
2023/07/31 06:01:53;;;;;;;7.83;7.17;;;19.70;99.90;;;;;;4991235;28;20180;-74
2023/07/31 06:04:19;;;;;;;8.73;7.80;;;19.70;99.90;;;;;;4990157;28;20434;-73
2023/07/31 06:06:44;;;;;;;8.10;7.27;;;19.70;99.90;;;;;;4985421;28;20193;-73
2023/07/31 06:09:11;;;;;;;6.87;6.17;;;19.70;99.90;;;;;;4986577;28;20188;-72
2023/07/31 06:11:37;;;;;;;7.13;6.50;;;19.70;99.90;;;;;;4976464;28;20342;-71
2023/07/31 06:14:03;;;;;;;9.97;6.60;;;19.70;99.90;;;;;;4993462;28;20521;-67
2023/07/31 06:16:28;;;;;;;8.83;6.90;;;19.60;99.90;;;;;;4987092;28;20188;-72
2023/07/31 06:18:54;;;;;;;7.53;6.80;;;19.60;99.90;;;;;;4992306;28;20192;-72
2023/07/31 06:21:20;;;;;;;11.60;7.93;;;19.60;99.90;;;;;;4993825;28;20184;-72
2023/07/31 06:23:45;;;;;;;8.47;7.63;;;19.60;99.90;;;;;;4993541;28;20530;-71
2023/07/31 06:26:11;;;;;;;7.90;6.97;;;19.50;99.90;;;;;;4992675;28;20195;-71
2023/07/31 06:28:37;;;;;;;9.23;6.93;;;19.50;99.90;;;;;;4985563;28;20184;-73
2023/07/31 06:31:03;;;;;;;7.80;7.20;;;19.50;99.90;;;;;;4981770;28;20254;-74
2023/07/31 06:33:28;;;;;;;10.60;9.70;;;19.60;99.90;;;;;;4979515;28;20317;-72
2023/07/31 06:35:54;;;;;;;6.33;5.83;;;19.60;99.90;;;;;;4993136;28;20604;-73
2023/07/31 06:38:23;;;;;;;8.30;7.50;;;19.50;99.90;;;;;;4987252;28;20195;-72
2023/07/31 06:40:49;;;;;;;9.83;9.07;;;19.50;99.90;;;;;;4995127;28;20183;-75
2023/07/31 06:43:14;;;;;;;9.23;8.63;;;19.60;99.90;;;;;;4992751;28;20431;-73
2023/07/31 06:45:40;;;;;;;7.97;7.23;;;19.60;99.90;;;;;;4994314;28;20780;-72
2023/07/31 06:48:06;;;;;;;8.90;7.60;;;19.50;99.90;;;;;;4994451;28;20180;-73
2023/07/31 06:50:32;;;;;;;10.17;9.53;;;19.40;99.90;;;;;;4990387;28;20228;-73
2023/07/31 06:52:58;;;;;;;7.87;7.17;;;19.40;99.90;;;;;;4977760;28;20250;-73
2023/07/31 06:55:24;;;;;;;7.47;6.87;;;19.50;99.90;;;;;;4994474;28;20511;-80
2023/07/31 06:57:51;;;;;;;8.53;7.83;;;19.50;99.90;;;;;;4984874;28;20199;-71
2023/07/31 07:00:18;;;;;;;7.20;6.50;;;19.60;99.90;;;;;;4988470;28;20521;-67
2023/07/31 07:02:44;;;;;;;7.10;6.37;;;19.60;99.90;;;;;;4986113;28;20534;-73
2023/07/31 07:05:10;;;;;;;7.27;6.00;;;19.60;99.90;;;;;;4990070;28;20527;-72
2023/07/31 07:07:36;;;;;;;7.50;6.90;;;19.50;99.90;;;;;;4979966;28;20180;-71
2023/07/31 07:10:03;;;;;;;7.17;6.63;;;19.50;99.90;;;;;;4988513;28;20439;-64
2023/07/31 07:12:30;;;;;;;6.87;6.37;;;19.50;99.90;;;;;;4989095;28;20471;-73
2023/07/31 07:14:57;;;;;;;9.03;7.50;;;19.40;99.90;;;;;;4988621;28;20431;-71
2023/07/31 07:17:23;;;;;;;6.43;5.87;;;19.40;99.90;;;;;;4991535;28;21440;-72
2023/07/31 07:19:49;;;;;;;7.27;6.73;;;19.40;99.90;;;;;;4993984;28;20419;-72
2023/07/31 07:22:15;;;;;;;9.30;8.80;;;19.40;99.90;;;;;;4990518;28;20442;-68
2023/07/31 07:24:42;;;;;;;6.43;6.00;;;19.40;99.90;;;;;;4990038;28;20191;-72
2023/07/31 07:27:07;;;;;;;7.87;7.37;;;19.40;99.90;;;;;;4984122;28;20215;-72
2023/07/31 07:29:38;;;;;;;6.80;6.30;;;19.20;99.90;;;;;;4988383;28;20517;-72
2023/07/31 07:32:04;;;;;;;6.43;5.97;;;19.30;99.90;;;;;;4989712;28;20235;-63
2023/07/31 07:34:29;;;;;;;9.87;9.23;;;19.20;99.90;;;;;;4992802;28;20561;-73
2023/07/31 07:36:55;;;;;;;7.07;6.50;;;19.20;99.90;;;;;;4991369;28;20514;-72
2023/07/31 07:39:21;;;;;;;7.20;6.60;;;19.30;99.90;;;;;;4988144;28;20181;-73
2023/07/31 07:41:47;;;;;;;6.90;6.40;;;19.30;99.90;;;;;;4976346;28;20623;-73
2023/07/31 07:44:14;;;;;;;7.83;7.33;;;19.30;99.90;;;;;;4988056;28;20179;-72
2023/07/31 07:46:40;;;;;;;7.57;6.90;;;19.30;99.90;;;;;;4988952;28;20493;-73
2023/07/31 07:49:06;;;;;;;7.77;6.97;;;19.20;99.90;;;;;;4993284;28;20404;-67
2023/07/31 07:51:32;;;;;;;7.37;6.07;;;19.20;99.90;;;;;;4991373;28;20473;-72
2023/07/31 07:54:01;;;;;;;10.77;7.83;;;19.20;99.90;;;;;;4980109;28;20176;-73
2023/07/31 07:56:27;;;;;;;8.73;7.80;;;19.30;99.90;;;;;;4990886;28;20439;-74
2023/07/31 07:58:54;;;;;;;8.10;7.50;;;19.20;99.90;;;;;;4981425;28;20520;-72
2023/07/31 08:01:22;;;;;;;9.23;8.37;;;19.30;99.90;;;;;;4986691;28;20431;-72
2023/07/31 08:03:48;;;;;;;9.50;8.30;;;19.30;99.90;;;;;;4992219;28;20406;-77
2023/07/31 08:06:14;;;;;;;8.23;7.43;;;19.30;99.90;;;;;;4975341;28;20923;-72
2023/07/31 08:08:40;;;;;;;8.10;7.43;;;19.30;99.90;;;;;;4989191;28;20445;-74
2023/07/31 08:11:06;;;;;;;9.30;8.70;;;19.40;99.90;;;;;;4985107;28;20530;-63
2023/07/31 08:13:32;;;;;;;6.87;6.47;;;19.40;99.90;;;;;;4992251;28;20266;-71
2023/07/31 08:15:58;;;;;;;7.70;7.00;;;19.30;99.90;;;;;;4985917;28;20510;-71
2023/07/31 08:18:24;;;;;;;8.60;8.00;;;19.30;99.90;;;;;;4988790;28;20594;-72
2023/07/31 08:20:49;;;;;;;6.80;6.30;;;19.40;99.90;;;;;;4992895;28;20179;-79
2023/07/31 08:23:15;;;;;;;91.23;75.67;;;19.60;99.90;;;;;;4983797;28;20600;-78
2023/07/31 08:25:41;;;;;;;8.43;7.73;;;19.60;99.90;;;;;;4981835;28;20211;-70
2023/07/31 08:28:07;;;;;;;6.57;6.07;;;19.60;99.90;;;;;;4989664;28;20184;-63
2023/07/31 08:30:36;;;;;;;6.60;5.93;;;19.60;99.90;;;;;;4989147;28;20208;-70
2023/07/31 08:33:02;;;;;;;6.53;6.03;;;19.60;99.90;;;;;;4986838;28;20471;-72
2023/07/31 08:35:28;;;;;;;7.57;7.17;;;19.60;99.90;;;;;;4980558;28;20553;-70
2023/07/31 08:37:54;;;;;;;6.40;5.93;;;19.60;99.90;;;;;;4988832;28;20546;-71
2023/07/31 08:40:21;;;;;;;6.00;5.50;;;19.50;99.90;;;;;;4990802;28;20192;-70
2023/07/31 08:42:49;;;;;;;8.70;8.10;;;19.40;99.90;;;;;;4989628;28;20980;-69
2023/07/31 08:45:17;;;;;;;12.93;11.87;;;19.40;99.90;;;;;;4990828;28;20427;-69
2023/07/31 08:47:45;;;;;;;6.80;6.30;;;19.40;99.90;;;;;;4991514;28;20481;-67
2023/07/31 08:50:13;;;;;;;6.90;6.30;;;19.40;99.90;;;;;;4983816;28;20454;-66
2023/07/31 08:52:40;;;;;;;6.33;5.93;;;19.40;99.90;;;;;;4983367;28;20435;-77
2023/07/31 08:55:06;;;;;;;6.37;5.87;;;19.40;99.90;;;;;;4979114;28;20454;-60
2023/07/31 08:57:35;;;;;;;6.67;6.13;;;19.40;99.90;;;;;;4981572;28;20516;-68
2023/07/31 09:00:06;;;;;;;15.10;13.80;;;19.40;99.90;;;;;;4995915;28;20432;-67
2023/07/31 09:02:41;;;;;;;97.63;68.63;;;19.40;99.90;;;;;;4988519;28;20471;-66
2023/07/31 09:05:07;;;;;;;50.30;44.00;;;19.40;99.90;;;;;;4989154;28;20438;-62
2023/07/31 09:07:38;;;;;;;41.23;37.23;;;19.40;99.90;;;;;;4982231;28;20458;-68
2023/07/31 09:10:05;;;;;;;33.30;29.80;;;19.50;99.90;;;;;;4981523;28;20438;-68
2023/07/31 09:12:31;;;;;;;6.80;6.40;;;19.50;99.90;;;;;;4990903;28;20628;-66
2023/07/31 09:14:59;;;;;;;7.00;6.60;;;19.50;99.90;;;;;;4990714;28;20427;-65
2023/07/31 09:17:32;;;;;;;7.00;6.60;;;19.40;99.90;;;;;;4983489;28;20423;-67
2023/07/31 09:20:05;;;;;;;6.10;5.60;;;19.30;99.90;;;;;;4980411;28;20427;-65
2023/07/31 09:22:35;;;;;;;5.00;4.70;;;19.20;99.90;;;;;;4981007;28;20435;-69
2023/07/31 09:25:24;;;;;;;5.83;5.43;;;19.20;99.90;;;;;;4979215;28;20444;-61
2023/07/31 09:27:56;;;;;;;4.90;4.60;;;19.20;99.90;;;;;;4990910;28;20518;-61
2023/07/31 09:30:22;;;;;;;5.00;4.70;;;19.30;99.90;;;;;;4984123;28;20443;-62
2023/07/31 09:32:50;;;;;;;5.33;4.93;;;19.20;99.90;;;;;;4994404;28;20489;-55
2023/07/31 09:35:22;;;;;;;229.50;195.80;;;19.20;99.90;;;;;;4992221;28;20188;-56
2023/07/31 09:37:52;;;;;;;16.60;14.93;;;19.20;99.90;;;;;;4985959;28;20791;-57
2023/07/31 09:40:32;;;;;;;5.53;5.13;;;19.30;99.90;;;;;;4983707;28;20430;-57
2023/07/31 09:43:00;;;;;;;5.30;4.90;;;19.20;99.90;;;;;;4983500;28;20855;-60
2023/07/31 09:45:27;;;;;;;5.37;4.97;;;19.20;99.90;;;;;;4982122;28;20441;-61
2023/07/31 09:47:54;;;;;;;5.80;5.20;;;19.30;99.90;;;;;;4976343;28;20466;-61
2023/07/31 09:50:24;;;;;;;5.57;5.10;;;19.30;99.90;;;;;;4993445;28;20431;-60
2023/07/31 09:52:50;;;;;;;6.80;6.40;;;19.20;99.90;;;;;;4994026;28;20513;-59
2023/07/31 09:55:16;;;;;;;5.53;5.23;;;19.20;99.90;;;;;;4994600;28;20419;-58
2023/07/31 09:57:48;;;;;;;5.73;5.43;;;19.30;99.90;;;;;;4990498;28;20419;-59
2023/07/31 10:00:18;;;;;;;5.73;5.37;;;19.30;99.90;;;;;;4988693;28;20437;-59
2023/07/31 10:02:46;;;;;;;5.80;5.40;;;19.30;99.90;;;;;;4980689;28;20514;-59
2023/07/31 10:05:15;;;;;;;5.50;5.20;;;19.30;99.90;;;;;;4976695;28;20431;-58
2023/07/31 10:07:43;;;;;;;5.83;5.43;;;19.40;99.90;;;;;;4982072;28;20435;-53
2023/07/31 10:10:09;;;;;;;4.83;4.53;;;19.40;99.90;;;;;;4982437;28;20782;-50
2023/07/31 10:12:36;;;;;;;5.10;4.50;;;19.40;99.90;;;;;;4991823;28;20668;-54
2023/07/31 10:15:03;;;;;;;4.87;4.57;;;19.50;99.90;;;;;;4978142;28;20942;-53
2023/07/31 10:17:31;;;;;;;4.93;4.53;;;19.40;99.90;;;;;;4993562;28;20438;-49
2023/07/31 10:19:59;;;;;;;4.70;4.50;;;19.40;99.90;;;;;;4977979;28;20431;-54
2023/07/31 10:22:25;;;;;;;5.70;5.43;;;19.30;99.90;;;;;;4982298;28;20792;-51
2023/07/31 10:24:54;;;;;;;49.43;38.60;;;19.30;99.90;;;;;;4994034;28;20399;-55
2023/07/31 10:27:20;;;;;;;15.73;14.03;;;19.30;99.90;;;;;;4988234;28;20848;-59
2023/07/31 10:29:47;;;;;;;7.40;7.10;;;19.30;99.90;;;;;;4991932;28;20431;-61
2023/07/31 10:32:15;;;;;;;14.13;11.90;;;19.30;99.90;;;;;;4994915;28;20521;-61
2023/07/31 10:34:41;;;;;;;5.00;4.70;;;19.40;99.90;;;;;;4993759;28;20430;-61
2023/07/31 10:37:38;;;;;;;12.97;11.80;;;19.30;99.90;;;;;;4991975;28;20438;-61
2023/07/31 10:40:05;;;;;;;6.23;5.90;;;19.40;99.90;;;;;;4992773;28;20438;-61
2023/07/31 10:42:32;;;;;;;4.90;4.60;;;19.60;99.90;;;;;;4993594;28;20435;-61
2023/07/31 10:44:59;;;;;;;7.07;6.40;;;19.80;99.90;;;;;;4994639;28;20419;-61
2023/07/31 10:47:25;;;;;;;10.30;9.50;;;19.60;99.90;;;;;;4992875;28;20426;-61
2023/07/31 10:49:51;;;;;;;7.23;6.73;;;19.80;99.90;;;;;;4991291;28;20426;-61
2023/07/31 10:52:26;;;;;;;4.93;4.73;;;19.90;99.90;;;;;;4994368;28;20512;-61
2023/07/31 10:55:21;;;;;;;5.73;5.40;;;19.70;99.90;;;;;;4993398;28;20245;-61
2023/07/31 10:57:50;;;;;;;4.60;4.40;;;19.70;99.90;;;;;;4993384;28;20519;-61
2023/07/31 11:00:29;;;;;;;6.40;6.07;;;19.70;99.90;;;;;;4992824;28;20494;-61
2023/07/31 11:03:04;;;;;;;4.73;4.33;;;19.70;99.90;;;;;;4973825;28;20439;-61
2023/07/31 11:06:03;;;;;;;4.77;4.47;;;19.70;99.90;;;;;;4987639;28;20845;-60
2023/07/31 11:08:33;;;;;;;6.00;5.70;;;19.40;99.90;;;;;;4991174;28;20439;-59
2023/07/31 11:11:02;;;;;;;76.97;57.67;;;19.30;99.90;;;;;;4992912;28;20455;-59
2023/07/31 11:13:28;;;;;;;49.83;44.83;;;19.40;99.90;;;;;;4991495;28;20435;-59
2023/07/31 11:15:54;;;;;;;6.53;6.13;;;19.40;99.90;;;;;;4992841;28;20506;-58
2023/07/31 11:18:20;;;;;;;5.93;5.53;;;19.40;99.90;;;;;;4991211;28;20513;-59
2023/07/31 11:20:46;;;;;;;8.60;7.90;;;19.50;99.90;;;;;;4991806;28;20665;-61
2023/07/31 11:23:12;;;;;;;10.87;9.87;;;19.60;99.90;;;;;;4992239;28;20439;-61
2023/07/31 11:25:42;;;;;;;12.70;11.47;;;19.60;99.90;;;;;;4993127;28;20437;-61
2023/07/31 11:28:15;;;;;;;5.23;4.83;;;19.70;99.90;;;;;;4990898;28;20464;-61
2023/07/31 11:30:42;;;;;;;7.80;7.30;;;19.80;99.90;;;;;;4993066;28;20947;-61
2023/07/31 11:33:12;;;;;;;5.67;5.20;;;19.80;99.90;;;;;;4993605;28;20470;-61
2023/07/31 11:35:46;;;;;;;5.80;5.53;;;19.90;99.90;;;;;;4991860;28;20441;-61
2023/07/31 11:38:21;;;;;;;5.67;5.37;;;19.90;99.90;;;;;;4991828;28;20485;-61
2023/07/31 11:40:47;;;;;;;7.13;6.53;;;20.00;99.90;;;;;;4993089;28;20473;-61
2023/07/31 11:43:16;;;;;;;5.77;5.47;;;19.90;99.90;;;;;;4992690;28;20435;-61
2023/07/31 11:45:49;;;;;;;6.60;6.20;;;19.70;99.90;;;;;;4988716;28;20177;-62
2023/07/31 11:48:29;;;;;;;185.67;152.27;;;19.70;99.90;;;;;;4978904;28;20434;-62
2023/07/31 11:50:58;;;;;;;14.40;12.97;;;19.80;99.90;;;;;;4992808;28;20458;-62
2023/07/31 11:53:45;;;;;;;16.23;14.80;;;19.90;99.90;;;;;;4990604;28;20435;-57
2023/07/31 11:56:16;;;;;;;12.63;11.50;;;20.00;99.90;;;;;;4991603;28;20434;-58
2023/07/31 11:58:45;;;;;;;7.60;7.00;;;20.00;99.90;;;;;;4991339;28;20441;-56
2023/07/31 12:01:11;;;;;;;11.53;10.63;;;20.00;99.90;;;;;;4992763;28;20431;-58
2023/07/31 12:03:38;;;;;;;11.57;10.40;;;19.90;99.90;;;;;;4991862;28;20508;-56
2023/07/31 12:06:03;;;;;;;8.87;7.97;;;20.00;99.90;;;;;;4990101;28;20423;-57
2023/07/31 12:08:29;;;;;;;8.10;7.50;;;20.00;99.90;;;;;;4992239;28;20898;-56
2023/07/31 12:11:06;;;;;;;4.83;4.63;;;19.70;99.90;;;;;;4992199;28;20742;-57
2023/07/31 12:13:33;;;;;;;5.97;5.67;;;19.70;99.90;;;;;;4992226;28;20313;-57
2023/07/31 12:16:03;;;;;;;7.37;6.67;;;19.70;99.90;;;;;;4992033;28;20438;-57
2023/07/31 12:18:33;;;;;;;9.87;9.20;;;19.60;99.90;;;;;;4991717;28;20446;-57
2023/07/31 12:21:00;;;;;;;5.37;5.07;;;19.60;99.90;;;;;;4991104;28;20423;-56
2023/07/31 12:23:31;;;;;;;5.97;5.47;;;19.60;99.90;;;;;;4988420;28;20459;-56
2023/07/31 12:26:16;;;;;;;5.80;5.40;;;19.50;99.90;;;;;;4974031;28;20884;-57
2023/07/31 12:28:43;;;;;;;6.80;6.37;;;19.60;99.90;;;;;;4992070;28;20433;-57
2023/07/31 12:31:11;;;;;;;7.17;6.70;;;19.80;99.90;;;;;;4992471;28;20482;-57
2023/07/31 12:33:38;;;;;;;5.80;5.50;;;19.90;99.90;;;;;;4992073;28;20537;-57
2023/07/31 12:36:15;;;;;;;6.97;6.47;;;20.00;99.90;;;;;;4993262;28;20414;-57
2023/07/31 12:38:42;;;;;;;5.47;5.17;;;20.20;99.90;;;;;;4989801;28;20513;-57
2023/07/31 12:41:08;;;;;;;4.70;4.40;;;20.20;99.90;;;;;;4991028;28;20438;-57
2023/07/31 12:43:35;;;;;;;5.20;4.90;;;20.20;99.90;;;;;;4992132;28;20886;-57
2023/07/31 12:46:01;;;;;;;6.73;6.37;;;20.20;99.90;;;;;;4991801;28;20422;-56